createdAt,value
2023-03-05T00:03:02.694Z,28.70
2023-03-05T00:06:09.358Z,27.33
2023-03-05T00:09:15.898Z,22.07
2023-03-05T00:12:22.240Z,19.33
2023-03-05T00:15:28.449Z,21.03
2023-03-05T00:18:36.670Z,31.33
2023-03-05T00:21:43.580Z,27.97
2023-03-05T00:24:51.986Z,34.63
2023-03-05T00:27:57.893Z,21.70
2023-03-05T00:31:04.525Z,21.10
2023-03-05T00:34:14.684Z,18.00
2023-03-05T00:37:21.054Z,21.23
2023-03-05T00:40:27.218Z,8.20
2023-03-05T00:43:33.502Z,6.77
2023-03-05T00:46:40.640Z,4.23
2023-03-05T00:49:48.618Z,2.57
2023-03-05T00:52:55.192Z,3.90
2023-03-05T00:56:01.713Z,2.93
2023-03-05T00:59:08.615Z,2.97
2023-03-05T01:02:16.149Z,3.73
2023-03-05T01:05:24.074Z,4.93
2023-03-05T01:08:30.702Z,4.10
2023-03-05T01:11:37.022Z,7.27
2023-03-05T01:14:43.586Z,10.13
2023-03-05T01:17:49.856Z,24.40
2023-03-05T01:20:57.673Z,13.90
2023-03-05T01:24:05.154Z,11.63
2023-03-05T01:27:11.610Z,12.40
2023-03-05T01:30:18.012Z,19.23
2023-03-05T01:33:24.268Z,18.07
2023-03-05T01:36:32.205Z,14.97
2023-03-05T01:39:38.456Z,18.40
2023-03-05T01:42:47.212Z,19.17
2023-03-05T01:46:34.902Z,13.13
2023-03-05T01:49:42.685Z,8.57
2023-03-05T01:52:54.690Z,16.87
2023-03-05T01:56:01.112Z,15.87
2023-03-05T01:59:07.669Z,18.30
2023-03-05T02:02:14.987Z,15.87
2023-03-05T02:05:27.240Z,17.80
2023-03-05T02:08:34.887Z,19.47
2023-03-05T02:11:41.664Z,15.37
2023-03-05T02:14:58.585Z,11.20
2023-03-05T02:18:05.291Z,9.57
2023-03-05T02:21:13.222Z,6.73
2023-03-05T02:24:33.083Z,7.50
2023-03-05T02:27:41.858Z,7.20
2023-03-05T02:30:48.305Z,8.97
2023-03-05T02:33:56.113Z,8.93
2023-03-05T02:37:04.875Z,12.60
2023-03-05T02:40:13.189Z,17.53
2023-03-05T02:43:20.016Z,25.83
2023-03-05T02:46:26.605Z,29.23
2023-03-05T02:49:33.299Z,24.90
2023-03-05T02:52:41.609Z,39.23
2023-03-05T02:55:48.621Z,21.60
2023-03-05T02:58:55.261Z,20.00
2023-03-05T03:02:01.668Z,17.00
2023-03-05T03:05:08.880Z,20.70
2023-03-05T03:08:16.612Z,19.57
2023-03-05T03:11:23.013Z,15.10
2023-03-05T03:14:31.970Z,12.97
2023-03-05T03:17:38.490Z,9.97
2023-03-05T03:20:44.966Z,11.97
2023-03-05T03:23:52.780Z,10.87
2023-03-05T03:26:58.889Z,6.27
2023-03-05T03:30:06.679Z,8.33
2023-03-05T03:33:12.930Z,13.93
2023-03-05T03:36:19.096Z,12.17
2023-03-05T03:39:26.746Z,10.67
2023-03-05T03:42:33.025Z,9.90
2023-03-05T03:45:42.968Z,6.67
2023-03-05T03:48:51.808Z,12.97
2023-03-05T03:51:58.884Z,10.63
2023-03-05T03:55:07.041Z,8.23
2023-03-05T03:58:13.305Z,10.97
2023-03-05T04:01:20.006Z,10.30
2023-03-05T04:04:26.840Z,7.93
2023-03-05T04:07:32.876Z,7.43
2023-03-05T04:10:40.877Z,10.00
2023-03-05T04:13:47.393Z,10.47
2023-03-05T04:16:53.707Z,8.53
2023-03-05T04:20:00.245Z,9.97
2023-03-05T04:23:06.655Z,8.93
2023-03-05T04:26:14.598Z,6.63
2023-03-05T04:29:21.284Z,10.73
2023-03-05T04:32:28.754Z,8.90
2023-03-05T04:35:35.040Z,8.73
2023-03-05T04:38:41.418Z,9.50
2023-03-05T04:41:49.385Z,20.53
2023-03-05T04:44:55.592Z,52.63
2023-03-05T04:48:02.222Z,34.80
2023-03-05T04:51:08.406Z,31.57
2023-03-05T04:54:14.862Z,42.23
2023-03-05T04:57:23.835Z,63.77
2023-03-05T05:00:30.347Z,118.00
2023-03-05T05:03:36.611Z,80.20
2023-03-05T05:06:43.256Z,60.13
2023-03-05T05:09:49.369Z,43.23
2023-03-05T05:12:57.261Z,29.27
2023-03-05T05:16:03.872Z,20.67
2023-03-05T05:19:10.214Z,22.20
2023-03-05T05:22:16.457Z,18.00
2023-03-05T05:25:22.551Z,20.43
2023-03-05T05:28:30.733Z,21.53
2023-03-05T05:31:37.008Z,17.30
2023-03-05T05:34:43.381Z,19.97
2023-03-05T05:37:49.995Z,32.53
2023-03-05T05:40:56.581Z,35.63
2023-03-05T05:44:04.323Z,66.50
2023-03-05T05:47:10.477Z,52.83
2023-03-05T05:50:16.999Z,52.10
2023-03-05T05:53:23.541Z,50.90
2023-03-05T05:56:30.069Z,37.37
2023-03-05T05:59:38.425Z,29.60
2023-03-05T06:02:45.316Z,36.43
2023-03-05T06:05:52.129Z,27.40
2023-03-05T06:08:58.934Z,24.73
2023-03-05T06:12:06.036Z,29.87
2023-03-05T06:15:14.222Z,14.63
2023-03-05T06:18:20.560Z,13.73
2023-03-05T06:21:26.934Z,19.27
2023-03-05T06:24:32.847Z,20.93
2023-03-05T06:27:39.467Z,29.87
2023-03-05T06:30:46.950Z,49.10
2023-03-05T06:33:54.600Z,24.27
2023-03-05T06:37:00.896Z,28.77
2023-03-05T06:40:08.462Z,29.20
2023-03-05T06:43:14.565Z,34.50
2023-03-05T06:46:24.513Z,21.17
2023-03-05T06:49:30.696Z,37.33
2023-03-05T06:52:38.994Z,33.67
2023-03-05T06:55:45.363Z,36.73
2023-03-05T06:58:53.411Z,54.93
2023-03-05T07:02:01.393Z,98.20
2023-03-05T07:05:09.060Z,77.97
2023-03-05T07:08:15.527Z,29.93
2023-03-05T07:11:22.567Z,19.50
2023-03-05T07:14:29.070Z,16.60
2023-03-05T07:17:36.779Z,22.43
2023-03-05T07:20:43.139Z,34.17
2023-03-05T07:23:49.320Z,25.43
2023-03-05T07:26:55.660Z,20.83
2023-03-05T07:30:02.135Z,23.77
2023-03-05T07:33:09.585Z,22.67
2023-03-05T07:36:16.822Z,19.80
2023-03-05T07:39:23.400Z,11.83
2023-03-05T07:42:29.918Z,12.17
2023-03-05T07:45:36.244Z,12.20
2023-03-05T07:48:43.706Z,9.00
2023-03-05T07:51:50.223Z,12.97
2023-03-05T07:54:56.231Z,14.67
2023-03-05T07:58:02.817Z,9.27
2023-03-05T08:01:14.601Z,8.87
2023-03-05T08:04:22.483Z,16.33
2023-03-05T08:07:29.004Z,8.30
2023-03-05T08:10:35.406Z,9.63
2023-03-05T08:13:41.822Z,11.47
2023-03-05T08:16:50.559Z,8.57
2023-03-05T08:20:00.323Z,7.30
2023-03-05T08:23:06.621Z,11.63
2023-03-05T08:26:14.759Z,10.43
2023-03-05T08:29:20.873Z,5.80
2023-03-05T08:32:27.177Z,6.77
2023-03-05T08:35:34.910Z,9.47
2023-03-05T08:38:42.283Z,6.07
2023-03-05T08:41:48.878Z,7.70
2023-03-05T08:44:55.252Z,3.83
2023-03-05T08:48:01.790Z,7.73
2023-03-05T08:51:11.228Z,2.30
2023-03-05T08:54:17.751Z,3.83
2023-03-05T08:57:23.883Z,5.20
2023-03-05T09:00:30.500Z,7.77
2023-03-05T09:03:36.769Z,4.93
2023-03-05T09:06:44.297Z,13.03
2023-03-05T09:09:50.900Z,2.73
2023-03-05T09:12:57.212Z,4.93
2023-03-05T09:16:06.517Z,3.07
2023-03-05T09:19:15.266Z,2.77
2023-03-05T09:22:23.275Z,10.87
2023-03-05T09:25:29.299Z,28.30
2023-03-05T09:28:35.412Z,6.67
2023-03-05T09:31:41.692Z,5.87
2023-03-05T09:34:48.307Z,3.87
2023-03-05T09:37:56.037Z,5.53
2023-03-05T09:41:08.067Z,6.73
2023-03-05T09:44:27.548Z,4.40
2023-03-05T09:47:47.507Z,3.27
2023-03-05T09:51:00.409Z,4.47
2023-03-05T09:54:13.760Z,4.30
2023-03-05T09:57:25.510Z,4.70
2023-03-05T10:00:37.438Z,14.43
2023-03-05T10:03:53.200Z,11.13
2023-03-05T10:07:06.866Z,5.87
2023-03-05T10:10:22.648Z,4.23
2023-03-05T10:13:34.098Z,3.33
2023-03-05T10:16:57.440Z,5.63
2023-03-05T10:20:25.692Z,4.93
2023-03-05T10:23:49.905Z,13.93
2023-03-05T10:27:06.507Z,10.17
2023-03-05T10:30:35.392Z,7.17
2023-03-05T10:33:50.641Z,9.97
2023-03-05T10:37:17.089Z,14.47
2023-03-05T10:40:32.741Z,10.90
2023-03-05T10:43:49.288Z,17.07
2023-03-05T10:46:59.495Z,10.00
2023-03-05T10:50:17.271Z,7.17
2023-03-05T10:53:29.300Z,10.23
2023-03-05T10:56:35.574Z,10.77
2023-03-05T10:59:48.092Z,4.50
2023-03-05T11:02:58.074Z,13.47
2023-03-05T11:06:05.031Z,9.53
2023-03-05T11:09:32.300Z,6.30
2023-03-05T11:12:39.847Z,9.40
2023-03-05T11:16:01.409Z,6.70
2023-03-05T11:19:26.948Z,6.20
2023-03-05T11:22:36.035Z,9.00
2023-03-05T11:25:58.267Z,5.90
2023-03-05T11:29:10.991Z,6.93
2023-03-05T11:32:23.027Z,10.40
2023-03-05T11:35:34.962Z,11.33
2023-03-05T11:38:52.274Z,16.93
2023-03-05T11:42:01.967Z,16.13
2023-03-05T11:45:15.723Z,14.87
2023-03-05T11:48:28.277Z,8.47
2023-03-05T11:51:41.643Z,9.27
2023-03-05T11:54:58.179Z,8.80
2023-03-05T11:58:23.293Z,5.83
2023-03-05T12:01:33.650Z,9.17
2023-03-05T12:04:41.192Z,6.53
2023-03-05T12:07:51.540Z,12.87
2023-03-05T12:10:59.461Z,7.87
2023-03-05T12:14:12.065Z,7.63
2023-03-05T12:17:25.584Z,5.47
2023-03-05T12:20:42.544Z,15.23
2023-03-05T12:23:59.108Z,12.07
2023-03-05T12:27:11.748Z,9.40
2023-03-05T12:30:56.825Z,13.77
2023-03-05T12:34:51.936Z,8.77
2023-03-05T12:38:32.498Z,7.97
2023-03-05T12:41:39.746Z,8.40
2023-03-05T12:44:45.681Z,13.07
2023-03-05T12:48:31.467Z,19.17
2023-03-05T12:51:41.030Z,9.63
2023-03-05T12:55:04.950Z,10.03
2023-03-05T12:58:14.825Z,4.07
2023-03-05T13:01:37.450Z,11.67
2023-03-05T13:04:47.264Z,6.13
2023-03-05T13:07:53.568Z,10.10
2023-03-05T13:11:03.829Z,6.40
2023-03-05T13:14:32.086Z,8.03
2023-03-05T13:17:44.456Z,7.80
2023-03-05T13:21:02.659Z,4.67
2023-03-05T13:24:17.985Z,8.47
2023-03-05T13:27:31.328Z,10.47
2023-03-05T13:30:37.599Z,12.70
2023-03-05T13:33:53.426Z,31.60
2023-03-05T13:37:01.868Z,15.90
2023-03-05T13:40:22.070Z,11.97
2023-03-05T13:43:29.736Z,11.53
2023-03-05T13:46:38.760Z,9.27
2023-03-05T13:49:45.528Z,8.90
2023-03-05T13:52:51.843Z,7.57
2023-03-05T13:56:01.232Z,10.70
2023-03-05T13:59:19.036Z,9.50
2023-03-05T14:02:25.490Z,17.00
2023-03-05T14:05:32.645Z,9.00
2023-03-05T14:08:39.352Z,10.17
2023-03-05T14:11:54.384Z,20.67
2023-03-05T14:15:06.947Z,9.73
2023-03-05T14:18:20.847Z,9.30
2023-03-05T14:21:27.830Z,9.47
2023-03-05T14:24:34.226Z,9.83
2023-03-05T14:27:40.740Z,11.33
2023-03-05T14:30:48.944Z,12.10
2023-03-05T14:34:03.180Z,18.40
2023-03-05T14:37:22.634Z,12.97
2023-03-05T14:40:31.109Z,14.67
2023-03-05T14:43:37.345Z,12.90
2023-03-05T14:46:49.545Z,14.77
2023-03-05T14:49:55.842Z,13.43
2023-03-05T14:53:04.763Z,16.57
2023-03-05T14:56:19.719Z,46.00
2023-03-05T14:59:26.043Z,21.03
2023-03-05T15:02:33.929Z,11.90
2023-03-05T15:05:41.135Z,23.40
2023-03-05T15:08:47.765Z,18.37
2023-03-05T15:11:54.171Z,24.10
2023-03-05T15:15:00.388Z,22.63
2023-03-05T15:18:08.474Z,23.13
2023-03-05T15:21:14.917Z,16.03
2023-03-05T15:24:39.565Z,16.40
2023-03-05T15:27:46.627Z,18.07
2023-03-05T15:30:53.190Z,16.73
2023-03-05T15:34:00.615Z,18.97
2023-03-05T15:37:06.743Z,38.90
2023-03-05T15:40:14.235Z,49.07
2023-03-05T15:43:20.970Z,18.80
2023-03-05T15:46:27.510Z,15.37
2023-03-05T15:49:35.041Z,16.43
2023-03-05T15:52:41.263Z,17.90
2023-03-05T15:55:47.290Z,15.07
2023-03-05T15:58:53.740Z,21.63
2023-03-05T16:01:59.954Z,26.27
2023-03-05T16:05:09.102Z,11.87
2023-03-05T16:08:15.565Z,14.13
2023-03-05T16:11:22.729Z,16.90
2023-03-05T16:14:31.626Z,21.07
2023-03-05T16:17:40.250Z,14.10
2023-03-05T16:20:48.864Z,19.23
2023-03-05T16:23:55.067Z,15.37
2023-03-05T16:27:01.515Z,13.03
2023-03-05T16:30:09.208Z,12.17
2023-03-05T16:33:15.558Z,12.73
2023-03-05T16:36:26.078Z,11.83
2023-03-05T16:39:32.275Z,33.73
2023-03-05T16:42:38.705Z,23.83
2023-03-05T16:45:44.967Z,15.33
2023-03-05T16:48:51.642Z,22.10
2023-03-05T16:52:01.432Z,29.33
2023-03-05T16:55:12.283Z,34.63
2023-03-05T16:58:18.591Z,27.53
2023-03-05T17:01:25.922Z,14.40
2023-03-05T17:04:32.365Z,22.30
2023-03-05T17:07:40.454Z,31.17
2023-03-05T17:10:47.224Z,53.90
2023-03-05T17:13:53.587Z,29.43
2023-03-05T17:16:59.440Z,45.57
2023-03-05T17:20:06.881Z,53.77
2023-03-05T17:23:14.718Z,266.73
2023-03-05T17:26:21.719Z,267.60
2023-03-05T17:29:28.119Z,52.93
2023-03-05T17:32:34.331Z,43.50
2023-03-05T17:35:41.116Z,38.70
2023-03-05T17:38:50.340Z,38.80
2023-03-05T17:41:56.602Z,23.93
2023-03-05T17:45:04.597Z,20.17
2023-03-05T17:48:12.522Z,46.03
2023-03-05T17:51:18.923Z,43.73
2023-03-05T17:54:27.003Z,26.13
2023-03-05T17:57:33.419Z,29.33
2023-03-05T18:00:39.588Z,46.50
2023-03-05T18:03:45.815Z,52.77
2023-03-05T18:06:52.278Z,25.97
2023-03-05T18:10:00.493Z,23.40
2023-03-05T18:13:07.211Z,28.53
2023-03-05T18:16:17.005Z,25.23
2023-03-05T18:19:24.049Z,34.40
2023-03-05T18:22:30.222Z,31.93
2023-03-05T18:25:37.852Z,26.90
2023-03-05T18:28:44.658Z,30.20
2023-03-05T18:31:50.764Z,22.90
2023-03-05T18:34:57.126Z,18.13
2023-03-05T18:38:03.467Z,22.43
2023-03-05T18:41:19.902Z,13.20
2023-03-05T18:44:26.935Z,15.30
2023-03-05T18:47:34.114Z,19.33
2023-03-05T18:50:40.377Z,17.10
2023-03-05T18:53:47.650Z,18.10
2023-03-05T18:56:55.064Z,16.23
2023-03-05T19:00:01.252Z,7.00
2023-03-05T19:03:07.617Z,14.17
2023-03-05T19:06:13.793Z,15.23
2023-03-05T19:09:59.625Z,9.83
2023-03-05T19:13:35.917Z,12.83
2023-03-05T19:16:44.266Z,17.27
2023-03-05T19:19:51.923Z,45.57
2023-03-05T19:22:58.113Z,36.50
2023-03-05T19:26:04.653Z,17.17
2023-03-05T19:29:12.844Z,14.67
2023-03-05T19:32:21.171Z,12.23
2023-03-05T19:35:27.470Z,35.80
2023-03-05T19:38:33.752Z,16.67
2023-03-05T19:41:39.935Z,37.00
2023-03-05T19:44:47.508Z,31.07
2023-03-05T19:47:53.880Z,36.47
2023-03-05T19:51:00.396Z,94.33
2023-03-05T19:54:06.707Z,16.83
2023-03-05T19:57:13.177Z,27.83
2023-03-05T20:00:21.977Z,25.30
2023-03-05T20:03:28.045Z,24.30
2023-03-05T20:06:35.288Z,17.00
2023-03-05T20:09:41.760Z,15.43
2023-03-05T20:12:50.554Z,22.03
2023-03-05T20:15:59.057Z,16.87
2023-03-05T20:19:08.849Z,16.17
2023-03-05T20:22:15.334Z,16.90
2023-03-05T20:25:24.909Z,18.87
2023-03-05T20:28:31.022Z,22.20
2023-03-05T20:31:39.404Z,24.70
2023-03-05T20:34:45.662Z,23.53
2023-03-05T20:38:25.175Z,19.53
2023-03-05T20:41:32.138Z,17.30
2023-03-05T20:44:38.434Z,23.17
2023-03-05T20:47:46.602Z,11.67
2023-03-05T20:50:52.997Z,10.03
2023-03-05T20:54:03.373Z,23.50
2023-03-05T20:57:09.722Z,24.60
2023-03-05T21:00:16.851Z,24.20
2023-03-05T21:03:25.621Z,18.57
2023-03-05T21:06:33.210Z,25.37
2023-03-05T21:09:39.635Z,21.83
2023-03-05T21:12:46.615Z,27.47
2023-03-05T21:15:53.525Z,26.33
2023-03-05T21:19:01.241Z,15.87
2023-03-05T21:22:07.413Z,21.53
2023-03-05T21:25:21.177Z,15.57
2023-03-05T21:28:27.558Z,22.60
2023-03-05T21:31:34.410Z,21.17
2023-03-05T21:34:44.324Z,21.97
2023-03-05T21:37:52.674Z,22.00
2023-03-05T21:40:59.888Z,20.70
2023-03-05T21:44:06.734Z,21.33
2023-03-05T21:47:13.845Z,18.80
2023-03-05T21:50:22.213Z,21.47
2023-03-05T21:53:28.450Z,18.30
2023-03-05T21:56:34.918Z,19.17
2023-03-05T21:59:41.558Z,23.87
2023-03-05T22:02:47.853Z,16.77
2023-03-05T22:05:55.941Z,14.97
2023-03-05T22:09:02.213Z,17.70
2023-03-05T22:12:32.330Z,10.70
2023-03-05T22:15:43.043Z,10.33
2023-03-05T22:18:49.337Z,13.10
2023-03-05T22:21:57.757Z,12.87
2023-03-05T22:25:04.744Z,19.30
2023-03-05T22:28:12.117Z,19.93
2023-03-05T22:31:22.971Z,12.07
2023-03-05T22:34:29.242Z,17.60
2023-03-05T22:37:37.118Z,15.47
2023-03-05T22:40:45.337Z,18.60
2023-03-05T22:43:52.036Z,13.37
2023-03-05T22:46:58.098Z,18.27
2023-03-05T22:50:06.085Z,14.77
2023-03-05T22:53:14.305Z,12.97
2023-03-05T22:56:21.742Z,16.97
2023-03-05T22:59:29.989Z,15.37
2023-03-05T23:02:36.642Z,18.47
2023-03-05T23:05:43.391Z,17.97
2023-03-05T23:08:51.487Z,5.77
2023-03-05T23:11:57.498Z,18.83
2023-03-05T23:15:06.008Z,10.30
2023-03-05T23:18:14.421Z,11.23
2023-03-05T23:21:21.013Z,8.37
2023-03-05T23:24:28.623Z,11.07
2023-03-05T23:27:35.089Z,13.93
2023-03-05T23:30:43.245Z,12.60
2023-03-05T23:33:49.341Z,10.33
2023-03-05T23:36:55.757Z,11.90
2023-03-05T23:40:04.314Z,14.23
2023-03-05T23:43:11.050Z,4.17
2023-03-05T23:46:17.452Z,6.77
2023-03-05T23:49:23.793Z,11.43
2023-03-05T23:52:30.232Z,15.67
2023-03-05T23:55:42.534Z,7.53
2023-03-05T23:58:48.824Z,9.00
